createdAt,value
2023-01-04T00:01:18.488Z,102537.34
2023-01-04T00:03:50.222Z,102527.97
2023-01-04T00:06:21.912Z,102528.25
2023-01-04T00:09:03.649Z,102540.81
2023-01-04T00:11:30.322Z,102525.03
2023-01-04T00:13:58.875Z,102530.19
2023-01-04T00:16:29.654Z,102529.75
2023-01-04T00:18:57.135Z,102527.69
2023-01-04T00:21:27.569Z,102533.50
2023-01-04T00:23:56.926Z,102529.53
2023-01-04T00:26:29.409Z,102528.69
2023-01-04T00:29:01.276Z,102523.97
2023-01-04T00:31:29.306Z,102529.25
2023-01-04T00:34:00.895Z,102532.06
2023-01-04T00:36:34.211Z,102523.75
2023-01-04T00:39:09.504Z,102531.13
2023-01-04T00:41:58.841Z,102527.13
2023-01-04T00:44:30.243Z,102522.63
2023-01-04T00:47:01.857Z,102525.56
2023-01-04T00:49:29.794Z,102531.31
2023-01-04T00:52:00.613Z,102536.28
2023-01-04T00:54:31.395Z,102527.31
2023-01-04T00:56:58.564Z,102525.94
2023-01-04T00:59:31.197Z,102530.91
2023-01-04T01:02:00.376Z,102524.31
2023-01-04T01:04:30.641Z,102518.28
2023-01-04T01:07:00.274Z,102521.22
2023-01-04T01:09:27.311Z,102524.47
2023-01-04T01:14:40.904Z,102535.19
2023-01-04T01:17:07.572Z,102532.78
2023-01-04T01:19:36.698Z,102540.78
2023-01-04T01:22:06.451Z,102544.81
2023-01-04T01:24:33.105Z,102541.69
2023-01-04T01:26:59.830Z,102552.81
2023-01-04T01:29:26.888Z,102551.56
2023-01-04T01:31:53.755Z,102544.78
2023-01-04T01:34:20.681Z,102541.22
2023-01-04T01:36:47.418Z,102545.78
2023-01-04T01:39:14.281Z,102550.34
2023-01-04T01:41:46.461Z,102538.56
2023-01-04T01:44:15.309Z,102546.38
2023-01-04T01:46:50.533Z,102551.09
2023-01-04T01:49:38.221Z,102550.72
2023-01-04T01:52:14.609Z,102547.00
2023-01-04T01:55:01.200Z,102550.38
2023-01-04T01:57:34.381Z,102549.44
2023-01-04T02:00:11.623Z,102544.88
2023-01-04T02:02:52.720Z,102545.97
2023-01-04T02:05:21.268Z,102554.31
2023-01-04T02:07:57.024Z,102549.88
2023-01-04T02:10:27.382Z,102547.03
2023-01-04T02:12:54.071Z,102541.47
2023-01-04T02:15:23.935Z,102540.63
2023-01-04T02:18:17.657Z,102534.78
2023-01-04T02:21:14.281Z,102536.59
2023-01-04T02:24:03.903Z,102536.25
2023-01-04T02:26:47.119Z,102537.81
2023-01-04T02:29:42.724Z,102535.75
2023-01-04T02:32:13.504Z,102533.78
2023-01-04T02:35:30.229Z,102540.19
2023-01-04T02:38:13.585Z,102532.38
2023-01-04T02:41:05.479Z,102541.88
2023-01-04T02:43:53.575Z,102538.16
2023-01-04T02:46:32.075Z,102535.78
2023-01-04T02:49:00.573Z,102533.84
2023-01-04T02:51:33.647Z,102529.53
2023-01-04T02:54:26.509Z,102520.91
2023-01-04T02:57:21.937Z,102521.44
2023-01-04T03:00:00.835Z,102514.03
2023-01-04T03:02:48.223Z,102520.88
2023-01-04T03:05:43.435Z,102519.75
2023-01-04T03:08:24.173Z,102529.34
2023-01-04T03:11:32.171Z,102523.47
2023-01-04T03:14:31.400Z,102519.00
2023-01-04T03:17:14.167Z,102536.59
2023-01-04T03:19:48.705Z,102532.41
2023-01-04T03:22:18.517Z,102539.69
2023-01-04T03:24:45.430Z,102531.81
2023-01-04T03:27:15.454Z,102534.16
2023-01-04T03:29:52.818Z,102532.50
2023-01-04T03:32:38.447Z,102526.16
2023-01-04T03:35:07.927Z,102521.97
2023-01-04T03:37:43.971Z,102520.03
2023-01-04T03:40:29.867Z,102520.16
2023-01-04T03:43:20.577Z,102513.34
2023-01-04T03:46:14.119Z,102512.78
2023-01-04T03:48:55.899Z,102527.03
2023-01-04T03:54:33.483Z,102525.84
2023-01-04T03:57:04.084Z,102530.50
2023-01-04T03:59:32.732Z,102527.88
2023-01-04T04:01:59.614Z,102523.94
2023-01-04T04:04:26.558Z,102530.13
2023-01-04T04:06:54.668Z,102522.19
2023-01-04T04:09:21.490Z,102521.50
2023-01-04T04:11:48.207Z,102521.84
2023-01-04T04:14:16.196Z,102517.09
2023-01-04T04:16:42.955Z,102514.00
2023-01-04T04:19:11.524Z,102506.38
2023-01-04T04:21:41.920Z,102506.31
2023-01-04T04:24:22.442Z,102509.59
2023-01-04T04:26:56.316Z,102506.31
2023-01-04T04:29:26.451Z,102511.06
2023-01-04T04:31:53.416Z,102514.75
2023-01-04T04:34:20.260Z,102511.91
2023-01-04T04:36:52.837Z,102511.28
2023-01-04T04:39:19.539Z,102513.22
2023-01-04T04:41:46.785Z,102517.59
2023-01-04T04:44:21.094Z,102513.44
2023-01-04T04:46:50.282Z,102515.13
2023-01-04T04:49:20.021Z,102514.88
2023-01-04T04:51:49.787Z,102519.69
2023-01-04T04:54:19.437Z,102517.69
2023-01-04T04:56:48.564Z,102522.00
2023-01-04T04:59:15.871Z,102524.88
2023-01-04T05:01:42.620Z,102524.03
2023-01-04T05:04:09.454Z,102516.31
2023-01-04T05:06:36.193Z,102518.34
2023-01-04T05:09:02.953Z,102506.16
2023-01-04T05:11:29.604Z,102503.25
2023-01-04T05:13:56.315Z,102508.88
2023-01-04T05:16:23.084Z,102513.50
2023-01-04T05:18:53.880Z,102514.88
2023-01-04T05:21:29.399Z,102508.88
2023-01-04T05:23:58.032Z,102509.53
2023-01-04T05:26:24.774Z,102508.88
2023-01-04T05:28:54.234Z,102514.44
2023-01-04T05:31:21.383Z,102511.28
2023-01-04T05:33:48.281Z,102514.56
2023-01-04T05:36:14.948Z,102516.56
2023-01-04T05:38:41.670Z,102516.38
2023-01-04T05:41:08.494Z,102519.72
2023-01-04T05:43:35.168Z,102520.25
2023-01-04T05:46:02.493Z,102525.44
2023-01-04T05:48:29.198Z,102537.16
2023-01-04T05:50:56.059Z,102535.66
2023-01-04T05:53:22.711Z,102529.25
2023-01-04T05:55:49.344Z,102535.50
2023-01-04T05:58:16.397Z,102542.19
2023-01-04T06:00:45.399Z,102538.41
2023-01-04T06:03:15.206Z,102539.13
2023-01-04T06:05:42.006Z,102543.53
2023-01-04T06:08:11.505Z,102551.56
2023-01-04T06:10:43.105Z,102547.34
2023-01-04T06:13:09.945Z,102553.16
2023-01-04T06:15:42.893Z,102557.34
2023-01-04T06:18:13.594Z,102559.91
2023-01-04T06:20:43.029Z,102552.41
2023-01-04T06:23:11.748Z,102549.47
2023-01-04T06:25:38.369Z,102546.47
2023-01-04T06:28:04.996Z,102537.25
2023-01-04T06:30:31.794Z,102541.50
2023-01-04T06:32:58.493Z,102547.34
2023-01-04T06:35:30.195Z,102552.81
2023-01-04T06:37:57.313Z,102551.44
2023-01-04T06:40:35.242Z,102556.31
2023-01-04T06:43:06.478Z,102564.69
2023-01-04T06:45:33.348Z,102560.44
2023-01-04T06:48:03.309Z,102556.22
2023-01-04T06:50:32.543Z,102563.44
2023-01-04T06:53:01.620Z,102559.84
2023-01-04T06:55:28.374Z,102565.47
2023-01-04T06:57:59.716Z,102565.91
2023-01-04T07:00:27.063Z,102559.03
2023-01-04T07:03:13.766Z,102567.84
2023-01-04T07:05:41.827Z,102564.50
2023-01-04T07:08:11.256Z,102563.47
2023-01-04T07:10:41.006Z,102569.88
2023-01-04T07:13:11.597Z,102572.59
2023-01-04T07:15:41.032Z,102574.25
2023-01-04T07:18:11.694Z,102579.06
2023-01-04T07:20:38.911Z,102580.44
2023-01-04T07:23:08.701Z,102586.88
2023-01-04T07:25:37.827Z,102584.03
2023-01-04T07:28:04.759Z,102586.97
2023-01-04T07:30:31.624Z,102585.47
2023-01-04T07:32:59.244Z,102591.28
2023-01-04T07:35:26.028Z,102585.69
2023-01-04T07:37:58.330Z,102585.19
2023-01-04T07:40:29.263Z,102583.91
2023-01-04T07:42:59.434Z,102589.69
2023-01-04T07:45:30.509Z,102589.69
2023-01-04T07:48:00.392Z,102589.75
2023-01-04T07:50:27.147Z,102602.31
2023-01-04T07:52:53.860Z,102597.66
2023-01-04T07:55:20.573Z,102600.09
2023-01-04T07:57:47.320Z,102599.69
2023-01-04T08:00:14.355Z,102604.53
2023-01-04T08:02:41.255Z,102601.59
2023-01-04T08:05:08.361Z,102601.47
2023-01-04T08:07:35.118Z,102597.78
2023-01-04T08:10:01.777Z,102597.91
2023-01-04T08:12:28.414Z,102598.31
2023-01-04T08:14:55.092Z,102603.56
2023-01-04T08:17:21.762Z,102612.03
2023-01-04T08:19:51.431Z,102614.19
2023-01-04T08:22:18.449Z,102613.44
2023-01-04T08:24:45.199Z,102611.13
2023-01-04T08:27:11.883Z,102610.91
2023-01-04T08:29:40.740Z,102605.03
2023-01-04T08:32:07.473Z,102610.00
2023-01-04T08:34:37.070Z,102608.78
2023-01-04T08:37:11.264Z,102619.66
2023-01-04T08:39:38.181Z,102607.09
2023-01-04T08:42:18.849Z,102617.88
2023-01-04T08:44:52.845Z,102622.38
2023-01-04T08:47:22.681Z,102627.31
2023-01-04T08:49:49.357Z,102627.16
2023-01-04T08:52:19.373Z,102625.47
2023-01-04T08:54:49.511Z,102629.16
2023-01-04T08:57:19.350Z,102615.75
2023-01-04T08:59:46.000Z,102618.56
2023-01-04T09:02:34.700Z,102618.16
2023-01-04T09:05:01.479Z,102619.91
2023-01-04T09:07:31.975Z,102622.63
2023-01-04T09:09:58.766Z,102628.72
2023-01-04T09:12:28.721Z,102622.63
2023-01-04T09:14:57.505Z,102631.13
2023-01-04T09:17:24.661Z,102629.97
2023-01-04T09:19:53.796Z,102629.53
2023-01-04T09:22:23.188Z,102629.34
2023-01-04T09:24:51.270Z,102623.84
2023-01-04T09:27:20.478Z,102625.91
2023-01-04T09:29:51.923Z,102623.00
2023-01-04T09:32:20.839Z,102631.22
2023-01-04T09:34:47.523Z,102620.69
2023-01-04T09:37:14.280Z,102627.50
2023-01-04T09:39:44.249Z,102619.69
2023-01-04T09:42:23.221Z,102625.97
2023-01-04T09:45:22.626Z,102633.19
2023-01-04T09:47:46.787Z,102627.78
2023-01-04T09:50:21.383Z,102625.38
2023-01-04T09:53:00.033Z,102627.31
2023-01-04T09:55:41.389Z,102622.31
2023-01-04T09:58:28.357Z,102620.84
2023-01-04T10:01:17.031Z,102620.44
2023-01-04T10:04:05.267Z,102613.34
2023-01-04T10:06:37.398Z,102613.03
2023-01-04T10:09:10.776Z,102620.53
2023-01-04T10:11:47.929Z,102610.78
2023-01-04T10:14:51.570Z,102609.13
2023-01-04T10:18:00.839Z,102607.41
2023-01-04T10:24:09.806Z,102600.00
2023-01-04T10:26:47.626Z,102597.91
2023-01-04T10:29:58.953Z,102588.91
2023-01-04T10:32:47.780Z,102588.03
2023-01-04T10:35:28.391Z,102575.28
2023-01-04T10:37:59.932Z,102586.00
2023-01-04T10:40:31.549Z,102576.13
2023-01-04T10:43:12.982Z,102577.91
2023-01-04T10:46:06.052Z,102578.91
2023-01-04T10:49:06.639Z,102572.78
2023-01-04T10:51:45.503Z,102572.53
2023-01-04T10:54:30.876Z,102567.34
2023-01-04T10:57:29.692Z,102567.06
2023-01-04T11:00:07.255Z,102565.56
2023-01-04T11:02:45.296Z,102563.44
2023-01-04T11:05:28.296Z,102559.72
2023-01-04T11:08:28.687Z,102555.66
2023-01-04T11:11:06.236Z,102553.31
2023-01-04T11:13:32.920Z,102556.75
2023-01-04T11:16:02.180Z,102555.41
2023-01-04T11:18:36.982Z,102552.63
2023-01-04T11:21:08.700Z,102538.50
2023-01-04T11:23:44.519Z,102544.81
2023-01-04T11:26:19.258Z,102540.81
2023-01-04T11:29:05.989Z,102537.84
2023-01-04T11:31:48.925Z,102535.34
2023-01-04T11:34:18.177Z,102523.09
2023-01-04T11:36:47.891Z,102523.91
2023-01-04T11:39:23.277Z,102525.28
2023-01-04T11:42:03.610Z,102516.38
2023-01-04T11:44:36.960Z,102520.81
2023-01-04T11:47:28.282Z,102517.31
2023-01-04T11:49:59.257Z,102512.13
2023-01-04T11:52:45.480Z,102509.53
2023-01-04T11:55:28.856Z,102500.50
2023-01-04T11:58:08.815Z,102499.63
2023-01-04T12:00:35.652Z,102490.75
2023-01-04T12:03:19.284Z,102492.28
2023-01-04T12:05:48.841Z,102487.13
2023-01-04T12:08:31.373Z,102484.41
2023-01-04T12:11:05.060Z,102473.94
2023-01-04T12:13:48.946Z,102474.06
2023-01-04T12:16:26.932Z,102466.09
2023-01-04T12:18:55.844Z,102458.63
2023-01-04T12:21:25.076Z,102456.97
2023-01-04T12:23:54.141Z,102464.91
2023-01-04T12:26:21.494Z,102456.66
2023-01-04T12:28:51.359Z,102460.44
2023-01-04T12:31:21.682Z,102456.84
2023-01-04T12:34:23.857Z,102457.38
2023-01-04T12:36:50.477Z,102453.84
2023-01-04T12:39:19.064Z,102452.50
2023-01-04T12:41:45.758Z,102446.66
2023-01-04T12:44:37.701Z,102441.13
2023-01-04T12:47:27.255Z,102440.03
2023-01-04T12:50:04.784Z,102437.13
2023-01-04T12:53:10.593Z,102436.53
2023-01-04T12:55:44.158Z,102422.44
2023-01-04T12:59:06.660Z,102431.22
2023-01-04T13:01:27.059Z,102431.13
2023-01-04T13:04:07.308Z,102422.56
2023-01-04T13:06:48.037Z,102419.59
2023-01-04T13:09:24.058Z,102423.09
2023-01-04T13:12:01.283Z,102416.03
2023-01-04T13:14:40.620Z,102419.25
2023-01-04T13:17:27.019Z,102416.03
2023-01-04T13:19:55.659Z,102412.88
2023-01-04T13:22:29.257Z,102414.66
2023-01-04T13:25:00.367Z,102414.63
2023-01-04T13:27:27.901Z,102412.84
2023-01-04T13:29:57.573Z,102416.84
2023-01-04T13:32:28.297Z,102410.06
2023-01-04T13:35:15.336Z,102407.25
2023-01-04T13:37:49.848Z,102400.28
2023-01-04T13:40:29.015Z,102397.59
2023-01-04T13:43:29.464Z,102390.50
2023-01-04T13:46:20.759Z,102379.81
2023-01-04T13:49:02.144Z,102379.09
2023-01-04T13:51:36.673Z,102376.88
2023-01-04T13:54:17.058Z,102371.19
2023-01-04T13:56:46.101Z,102374.53
2023-01-04T13:59:18.127Z,102369.91
2023-01-04T14:01:47.733Z,102370.31
2023-01-04T14:04:29.020Z,102369.38
2023-01-04T14:06:59.651Z,102365.03
2023-01-04T14:09:46.940Z,102363.84
2023-01-04T14:12:26.751Z,102365.66
2023-01-04T14:15:25.780Z,102361.91
2023-01-04T14:17:54.000Z,102360.69
2023-01-04T14:20:20.605Z,102362.59
2023-01-04T14:22:47.278Z,102365.38
2023-01-04T14:25:35.853Z,102366.50
2023-01-04T14:28:26.003Z,102365.47
2023-01-04T14:31:00.167Z,102359.97
2023-01-04T14:33:38.059Z,102360.59
2023-01-04T14:36:17.919Z,102358.25
2023-01-04T14:39:07.489Z,102358.69
2023-01-04T14:41:37.066Z,102365.88
2023-01-04T14:44:11.375Z,102365.75
2023-01-04T14:46:38.542Z,102363.75
2023-01-04T14:49:05.401Z,102364.97
2023-01-04T14:51:50.080Z,102371.53
2023-01-04T14:54:24.280Z,102359.50
2023-01-04T14:56:59.444Z,102366.84
2023-01-04T14:59:35.239Z,102375.19
2023-01-04T15:02:04.604Z,102370.81
2023-01-04T15:04:31.368Z,102375.47
2023-01-04T15:07:01.945Z,102380.03
2023-01-04T15:09:30.109Z,102377.47
2023-01-04T15:12:02.031Z,102378.88
2023-01-04T15:14:31.235Z,102383.75
2023-01-04T15:16:57.874Z,102374.84
2023-01-04T15:19:35.661Z,102379.88
2023-01-04T15:22:04.297Z,102368.00
2023-01-04T15:24:30.977Z,102368.34
2023-01-04T15:27:00.661Z,102377.69
2023-01-04T15:29:29.611Z,102371.03
2023-01-04T15:31:57.325Z,102370.59
2023-01-04T15:34:29.609Z,102374.09
2023-01-04T15:36:58.783Z,102363.53
2023-01-04T15:39:26.067Z,102364.22
2023-01-04T15:41:53.525Z,102361.56
2023-01-04T15:44:21.914Z,102356.00
2023-01-04T15:46:48.768Z,102352.81
2023-01-04T15:49:24.466Z,102345.16
2023-01-04T15:51:54.174Z,102353.06
2023-01-04T15:54:20.804Z,102348.94
2023-01-04T15:56:47.709Z,102349.75
2023-01-04T15:59:14.347Z,102345.00
2023-01-04T16:01:41.095Z,102339.75
2023-01-04T16:04:10.982Z,102338.69
2023-01-04T16:06:37.718Z,102343.56
2023-01-04T16:09:07.635Z,102339.84
2023-01-04T16:11:35.147Z,102332.44
2023-01-04T16:14:02.481Z,102330.84
2023-01-04T16:16:43.465Z,102321.75
2023-01-04T16:19:10.375Z,102323.25
2023-01-04T16:21:37.084Z,102308.25
2023-01-04T16:24:12.078Z,102316.09
2023-01-04T16:26:46.176Z,102313.72
2023-01-04T16:29:12.829Z,102317.88
2023-01-04T16:31:39.733Z,102312.44
2023-01-04T16:34:06.692Z,102323.03
2023-01-04T16:36:33.394Z,102321.25
2023-01-04T16:39:02.192Z,102316.47
2023-01-04T16:41:29.127Z,102311.75
2023-01-04T16:43:59.507Z,102312.13
2023-01-04T16:46:32.167Z,102312.91
2023-01-04T16:49:10.491Z,102315.97
2023-01-04T16:51:39.058Z,102315.44
2023-01-04T16:54:08.808Z,102318.09
2023-01-04T16:56:35.948Z,102315.59
2023-01-04T16:59:06.452Z,102320.28
2023-01-04T17:01:35.610Z,102323.50
2023-01-04T17:04:10.843Z,102318.19
2023-01-04T17:06:42.900Z,102316.91
2023-01-04T17:09:12.532Z,102316.53
2023-01-04T17:14:32.502Z,102315.84
2023-01-04T17:17:03.282Z,102318.19
2023-01-04T17:19:33.210Z,102317.22
2023-01-04T17:21:59.925Z,102316.09
2023-01-04T17:24:26.707Z,102318.25
2023-01-04T17:26:56.922Z,102319.66
2023-01-04T17:29:23.689Z,102320.63
2023-01-04T17:31:50.496Z,102321.56
2023-01-04T17:34:22.631Z,102311.41
2023-01-04T17:36:54.575Z,102313.94
2023-01-04T17:39:29.122Z,102313.53
2023-01-04T17:41:58.057Z,102312.44
2023-01-04T17:44:28.002Z,102299.66
2023-01-04T17:46:57.369Z,102296.75
2023-01-04T17:49:27.961Z,102297.91
2023-01-04T17:51:58.527Z,102296.88
2023-01-04T17:54:29.563Z,102285.97
2023-01-04T17:56:59.594Z,102282.66
2023-01-04T17:59:26.264Z,102288.69
2023-01-04T18:01:55.178Z,102287.84
2023-01-04T18:04:22.049Z,102286.06
2023-01-04T18:06:48.881Z,102282.03
2023-01-04T18:09:18.439Z,102278.88
2023-01-04T18:11:51.570Z,102278.03
2023-01-04T18:14:18.891Z,102271.63
2023-01-04T18:16:50.248Z,102265.75
2023-01-04T18:19:19.557Z,102270.28
2023-01-04T18:21:46.255Z,102271.44
2023-01-04T18:27:24.477Z,102269.34
2023-01-04T18:29:53.944Z,102278.97
2023-01-04T18:32:27.207Z,102283.28
2023-01-04T18:34:54.329Z,102277.88
2023-01-04T18:37:22.102Z,102280.53
2023-01-04T18:39:49.642Z,102281.94
2023-01-04T18:42:16.863Z,102281.19
2023-01-04T18:44:49.476Z,102279.09
2023-01-04T18:47:26.143Z,102281.19
2023-01-04T18:49:52.796Z,102279.84
2023-01-04T18:52:20.835Z,102276.47
2023-01-04T18:54:52.867Z,102259.53
2023-01-04T18:57:19.399Z,102265.16
2023-01-04T18:59:46.099Z,102273.25
2023-01-04T19:02:17.862Z,102269.38
2023-01-04T19:04:44.863Z,102263.69
2023-01-04T19:07:11.623Z,102258.41
2023-01-04T19:09:43.765Z,102260.47
2023-01-04T19:12:10.908Z,102257.28
2023-01-04T19:14:40.570Z,102251.34
2023-01-04T19:17:10.911Z,102264.53
2023-01-04T19:19:40.131Z,102260.03
2023-01-04T19:22:06.973Z,102258.81
2023-01-04T19:24:35.906Z,102263.53
2023-01-04T19:27:05.738Z,102253.81
2023-01-04T19:29:33.331Z,102259.09
2023-01-04T19:32:02.949Z,102253.81
2023-01-04T19:34:32.572Z,102251.75
2023-01-04T19:36:59.482Z,102257.25
2023-01-04T19:39:26.193Z,102258.53
2023-01-04T19:41:52.902Z,102256.06
2023-01-04T19:44:19.602Z,102258.22
2023-01-04T19:46:46.304Z,102254.41
2023-01-04T19:49:15.489Z,102245.75
2023-01-04T19:51:42.922Z,102246.59
2023-01-04T19:54:12.605Z,102242.75
2023-01-04T19:56:39.329Z,102236.09
2023-01-04T19:59:06.015Z,102238.25
2023-01-04T20:01:35.618Z,102241.88
2023-01-04T20:04:07.174Z,102247.41
2023-01-04T20:06:33.957Z,102242.03
2023-01-04T20:09:00.754Z,102234.66
2023-01-04T20:11:34.814Z,102231.06
2023-01-04T20:14:03.441Z,102233.72
2023-01-04T20:16:30.196Z,102238.88
2023-01-04T20:19:06.359Z,102237.09
2023-01-04T20:21:34.775Z,102239.16
2023-01-04T20:24:04.874Z,102240.09
2023-01-04T20:26:31.633Z,102244.13
2023-01-04T20:28:58.338Z,102238.53
2023-01-04T20:31:25.032Z,102230.00
2023-01-04T20:33:52.353Z,102224.97
2023-01-04T20:36:23.456Z,102228.91
2023-01-04T20:38:52.229Z,102213.59
2023-01-04T20:41:23.222Z,102211.16
2023-01-04T20:43:52.759Z,102210.00
2023-01-04T20:46:48.709Z,102201.25
2023-01-04T20:49:15.596Z,102212.22
2023-01-04T20:51:42.385Z,102218.03
2023-01-04T20:54:09.059Z,102220.69
2023-01-04T20:56:35.702Z,102227.38
2023-01-04T20:59:04.613Z,102227.94
2023-01-04T21:01:34.617Z,102223.38
2023-01-04T21:04:01.438Z,102224.75
2023-01-04T21:06:30.397Z,102218.13
2023-01-04T21:08:57.086Z,102230.34
2023-01-04T21:11:24.071Z,102224.91
2023-01-04T21:13:53.992Z,102221.97
2023-01-04T21:16:20.860Z,102223.19
2023-01-04T21:18:52.510Z,102224.19
2023-01-04T21:21:19.614Z,102216.34
2023-01-04T21:23:47.097Z,102219.41
2023-01-04T21:26:23.578Z,102223.53
2023-01-04T21:28:50.426Z,102210.22
2023-01-04T21:31:19.930Z,102217.75
2023-01-04T21:33:49.472Z,102215.63
2023-01-04T21:36:21.782Z,102208.53
2023-01-04T21:38:49.197Z,102204.81
2023-01-04T21:41:15.930Z,102219.69
2023-01-04T21:43:45.712Z,102221.03
2023-01-04T21:46:15.291Z,102223.72
2023-01-04T21:48:45.713Z,102225.22
2023-01-04T21:51:15.727Z,102217.47
2023-01-04T21:53:42.806Z,102224.47
2023-01-04T21:56:12.957Z,102222.22
2023-01-04T21:58:42.205Z,102219.63
2023-01-04T22:01:15.351Z,102212.38
2023-01-04T22:03:48.216Z,102212.13
2023-01-04T22:06:21.759Z,102206.81
2023-01-04T22:08:48.968Z,102210.91
2023-01-04T22:11:18.638Z,102214.84
2023-01-04T22:13:52.642Z,102198.78
2023-01-04T22:16:19.341Z,102195.06
2023-01-04T22:18:49.952Z,102185.81
2023-01-04T22:21:39.149Z,102186.66
2023-01-04T22:24:06.282Z,102184.41
2023-01-04T22:26:35.884Z,102179.72
2023-01-04T22:29:08.966Z,102178.78
2023-01-04T22:31:36.054Z,102177.81
2023-01-04T22:34:08.117Z,102180.84
2023-01-04T22:36:34.562Z,102176.16
2023-01-04T22:39:03.480Z,102179.28
2023-01-04T22:41:30.215Z,102168.31
2023-01-04T22:44:05.425Z,102181.13
2023-01-04T22:46:34.388Z,102177.66
2023-01-04T22:49:01.498Z,102175.50
2023-01-04T22:51:29.464Z,102179.16
2023-01-04T22:54:01.496Z,102168.81
2023-01-04T22:56:28.655Z,102163.28
2023-01-04T22:58:59.499Z,102148.66
2023-01-04T23:01:29.041Z,102147.69
2023-01-04T23:03:57.978Z,102143.41
2023-01-04T23:06:26.486Z,102136.59
2023-01-04T23:09:02.060Z,102138.28
2023-01-04T23:11:34.516Z,102140.28
2023-01-04T23:14:08.251Z,102150.84
2023-01-04T23:16:42.918Z,102141.53
2023-01-04T23:19:12.392Z,102149.97
2023-01-04T23:21:39.486Z,102148.41
2023-01-04T23:24:06.855Z,102144.97
2023-01-04T23:26:34.033Z,102150.50
2023-01-04T23:29:01.843Z,102154.25
2023-01-04T23:31:40.388Z,102159.91
2023-01-04T23:34:07.473Z,102149.00
2023-01-04T23:36:37.693Z,102146.41
2023-01-04T23:39:14.130Z,102148.06
2023-01-04T23:41:41.470Z,102147.22
2023-01-04T23:44:12.566Z,102161.84
2023-01-04T23:46:44.273Z,102150.56
2023-01-04T23:49:12.385Z,102149.63
2023-01-04T23:51:39.561Z,102139.28
2023-01-04T23:54:06.307Z,102138.31
2023-01-04T23:56:36.578Z,102142.97
2023-01-04T23:59:03.318Z,102136.25
